Flight Track Log - Related Links

Times and Time Zones

All times are in EDT time to prevent confusion due to time zone crossing. See the CES5107 flight status page for this flight to view local times or setup timezone preferences in your user account.

Time Position Orientation Groundspeed Altitude Reporting Facility
EDT Latitude Longitude Course Direction KTS MPH feet Rate Location/Type
Thu 11:13:29 PM 31.2158 121.3313 337° Northwest 164 189 1,200  Level FlightAware ADS-B
Thu 11:13:45 PM 31.2348 121.3197 325° Northwest 162 186 2,000 2,333 Climbing FlightAware ADS-B (ZSSS / SHA)
Thu 11:14:05 PM 31.2463 121.3091 321° Northwest 166 191 2,600 1,650 Climbing FlightAware ADS-B (ZSSS / SHA)
Thu 11:14:25 PM 31.2587 121.2970 320° Northwest 178 205 3,100 1,371 Climbing FlightAware ADS-B (ZSSS / SHA)
Thu 11:14:40 PM 31.2687 121.2876 321° Northwest 196 226 3,400 1,161 Climbing FlightAware ADS-B (ZSSS / SHA)
Thu 11:14:56 PM 31.2799 121.2769 322° Northwest 213 245 3,700 909 Climbing FlightAware ADS-B (ZSSS / SHA)
Thu 11:15:13 PM 31.2923 121.2654 321° Northwest 235 270 3,900 375 Climbing FlightAware ADS-B
Thu 11:15:28 PM 31.3037 121.2547 321° Northwest 253 291 3,900  Level FlightAware ADS-B
Thu 11:15:46 PM 31.3245 121.2352 321° Northwest 257 296 3,900 585 Level FlightAware ADS-B (ZSSS / SHA)
Thu 11:16:09 PM 31.3129 121.2462 321° Northwest 260 299 4,300 330 Climbing FlightAware ADS-B
Thu 11:18:48 PM 31.5026 121.0888 336° Northwest 261 300 4,900 695 Climbing FlightAware ADS-B (ZSSS / SHA)
Thu 11:53:17 PM 34.2709 118.0904 325° Northwest 422 486 30,100 699 Climbing FlightAware ADS-B (ZSQD / TAO)
Thu 11:54:50 PM 34.4301 117.9930 337° Northwest 425 489 30,100 -150 Level FlightAware ADS-B (ZSQD / TAO)
Fri 12:09:55 AM 35.9712 116.9987 356° North 429 494 27,600 -166 Descending FlightAware ADS-B (ZSQD / TAO)
Fri 12:12:00 AM 36.1899 116.9778 356° North  Level Estimated
Fri 12:13:00 AM 36.2948 116.9677 356° North  Level Estimated
Fri 12:14:00 AM 36.3998 116.9576 356° North  Level Estimated
Fri 12:15:00 AM 36.5048 116.9475 356° North  Level Estimated
Fri 12:16:00 AM 36.6098 116.9373 356° North  Level Estimated
Fri 12:17:00 AM 36.7147 116.9271 356° North  Level Estimated
Fri 12:18:00 AM 36.8197 116.9169 356° North  Level Estimated
Fri 12:19:00 AM 36.9247 116.9067 356° North  Level Estimated
Fri 12:20:00 AM 37.0296 116.8964 356° North  Level Estimated
Fri 12:21:00 AM 37.1346 116.8861 356° North  Level Estimated
Fri 12:22:00 AM 37.2396 116.8758 356° North  Level Estimated
Fri 12:23:00 AM 37.3445 116.8654 356° North  Level Estimated
Fri 12:24:00 AM 37.4495 116.8550 356° North  Level Estimated
Fri 12:25:00 AM 37.5545 116.8446 356° North  Level Estimated
Fri 12:26:00 AM 37.6594 116.8342 355° North  Level Estimated
Fri 12:27:00 AM 37.7644 116.8237 355° North  Level Estimated
Fri 12:28:00 AM 37.8694 116.8132 355° North  Level Estimated
Fri 12:29:00 AM 37.9743 116.8026 355° North  Level Estimated
Fri 12:30:00 AM 38.0793 116.7921 355° North  Level Estimated
Fri 12:31:00 AM 38.1842 116.7815 355° North  Level Estimated
Fri 12:32:00 AM 38.2892 116.7708 355° North  Level Estimated
Fri 12:33:00 AM 38.3942 116.7602 355° North  Level Estimated
Fri 12:34:00 AM 38.4991 116.7495 355° North  Level Estimated
Fri 12:35:00 AM 38.6041 116.7388 355° North  Level Estimated
Fri 12:36:00 AM 38.7090 116.7280 355° North  Level Estimated
Fri 12:37:00 AM 38.8140 116.7172 355° North  Level Estimated
Fri 12:38:00 AM 38.9189 116.7064 355° North  Level Estimated
Fri 12:39:00 AM 39.0239 116.6956 355° North  Level Estimated
Fri 12:40:00 AM 39.1288 116.6847 355° North  Level Estimated
Fri 12:41:00 AM 39.2338 116.6738 355° North  Level Estimated
Fri 12:42:00 AM 39.3294 116.6638 355° North  Level Estimated
Fri 12:43:00 AM 39.4250 116.6538 355° North  Level Estimated
Fri 12:44:00 AM 39.5206 116.6438 355° North  Level Estimated
Fri 12:45:00 AM 39.6162 116.6337 355° North  Level Estimated
Fri 12:46:00 AM 39.7118 116.6237 355° North  Level Estimated
Fri 12:47:00 AM 39.8073 116.6135 355° North  Level Estimated
Fri 12:48:00 AM 39.9029 116.6034 355° North  Level Estimated
Fri 12:49:00 AM 39.9985 116.5932 355° North  Level Estimated
Fri 12:50:00 AM 40.0801 116.5846 355° North  Level Estimated
Fri 12:51:00 AM 40.0801 116.5846 North  Level Estimated
Fri 12:52:00 AM 40.0801 116.5846 North  Level Estimated
Fri 12:53:00 AM 40.0801 116.5846 North  Level Estimated
Fri 12:54:00 AM 40.0801 116.5846 North  Level Estimated
Fri 12:55:00 AM 40.0801 116.5846 North  Level Estimated
Fri 12:56:00 AM 40.0801 116.5846 North  Level Estimated
Fri 12:57:00 AM 40.0801 116.5846 North  Level Estimated
Fri 12:58:00 AM 40.0801 116.5846 North  Level Estimated
Fri 12:59:00 AM 40.0801 116.5846 North  Level Estimated
Fri 01:00:00 AM 40.0801 116.5846 North  Level Estimated
Fri 01:01:00 AM 40.0801 116.5846 North  Level Estimated
Fri 01:02:00 AM 40.0801 116.5846 North  Level Estimated
Fri 01:03:00 AM 40.0801 116.5846 North  Level Estimated
Fri 01:04:00 AM 40.0801 116.5846 North  Level Estimated
Fri 01:05:00 AM 40.0801 116.5846 North  Level Estimated
Fri 01:06:00 AM 40.0801 116.5846 North  Level Estimated
Fri 01:07:00 AM 40.0801 116.5846 North  Level Estimated
Fri 01:08:00 AM 40.0801 116.5846 North  Level Estimated
Fri 01:09:00 AM 40.0801 116.5846 North  Level Estimated

Login

Don't have an account? Register now (free) for customized features, flight alerts, and more!